Radar AviationWeather DUATS TFRs Wunderground Accuweather Weather.com

alt : Radar

TAFs

KFWA 282158Z 2822/2918 24008KT 3SM TSRA BKN035CB
   FM282300 28010KT 6SM -SHRA BR OVC035
   FM290200 27010KT P6SM SCT250
   FM291300 26007KT P6SM FEW200
KJXN 282118Z 2821/2918 22011KT P6SM VCTS BKN035CB
     TEMPO 2822/2823 4SM -TSRA BR OVC025CB
   FM282300 26008KT P6SM BKN040
   FM291700 24012G20KT P6SM BKN100
KFDY 282110Z 2821/2918 22010KT P6SM VCTS SCT025CB OVC035
     TEMPO 2821/2901 VRB20G35KT 2SM TSRA OVC015CB
   FM290400 26010KT P6SM SCT035 BKN080
   FM291500 24012KT P6SM FEW040 SCT150
KCLE 282105Z 2821/2924 21011KT P6SM VCTS BKN025CB OVC040
     TEMPO 2821/2901 VRB20G35KT 2SM -TSRA OVC015CB
   FM290300 21008KT 5SM -SHRA OVC025
   FM290600 23008KT P6SM VCSH BKN025 OVC040
   FM291200 25008KT P6SM SCT035 BKN080
   FM291600 25012KT P6SM SCT040
KDTW 282056Z 2821/2924 16006KT 6SM -SHRA BR BKN050 OVC070
     TEMPO 2821/2823 3SM TSRA BR BKN030CB OVC040
   FM290200 26008KT 5SM BR BKN025
   FM290500 24006KT 6SM BR SCT018 BKN200
   FM291300 23012G22KT P6SM FEW025 SCT050
   FM291600 23015G25KT P6SM SCT050 BKN060
KTOL 282042Z 2821/2918 18012KT 3SM -TSRA SCT020CB OVC050
     TEMPO 2821/2822 VRB20G35KT 1 1/2SM TSRA OVC015CB
   FM282300 26010KT P6SM SCT035 BKN080
   FM291500 24012KT P6SM FEW040 SCT150

METARs

KCLE 282207Z VRB05G22KT 1 1/2SM +TSRA BR OVC026CB 19/17 A2973 RMK AO2 FRQ LTGICCG OHD TS OHD MOV NE P0005 T01890167
KDTW 282205Z 17014G22KT 7SM -RA FEW008 FEW050 OVC095 18/16 A2969 RMK AO2 LTG DSNT E-S OCNL LTGICCCCG DSNT E-S CB DSNT E-S MOV NE P0001 T01780161
KJXN 282204Z 18006KT 10SM -TSRA FEW055 BKN080 OVC100 20/16 A2967 RMK AO2 LTG DSNT SW TSB2158 P0002 T02000161
KDUH 282154Z AUTO 15005KT 10SM SCT017 SCT027 BKN110 16/15 A2971 RMK AO2 T01550146
KFWA 282154Z 21007KT 4SM TSRA BR SCT055CB BKN070 OVC090 18/16 A2972 RMK AO2 PK WND 27027/2118 LTG DSNT ALQDS RAB04 TSB05 SLP061 OCNL LTGICCG OHD TS OHD MOV E P0013 T01780156
KFDY 282153Z AUTO 25009KT 10SM FEW035 SCT065 25/17 A2970 RMK AO2 SLP048 T02500167 TSNO
KTDZ 282153Z AUTO 01007KT 10SM FEW016 BKN043 OVC090 19/16 A2974 RMK AO2 WSHFT 2132 LTG DSNT N-SE RAE22 TSE04 SLP067 P0009 T01940161
KTOL 282152Z 04007KT 10SM FEW029 SCT055 BKN090 18/16 A2970 RMK AO2 PK WND 34031/2111 WSHFT 2110 LTG DSNT NE-SE RAB2053E02B20E50 SLP057 P0002 T01780156

alt : Satellite

alt : TFRs